Terminal Aerodrome Forecast
Issued by NWS Cleveland, OH

Home | Current Version | Previous Version | Graphics & Text | Print | Product List | Glossary On
Versions: 1 2 3 4 5 6 7 8 9 10 11 12 13 14 15 16 17 18 19 20 21 22
000
FTUS41 KCLE 220900 AAA
TAFMFD
TAF AMD
KMFD 220926Z 2209/2306 31010KT P6SM BKN012 OVC030
      TEMPO 2210/2214 SCT012
     FM221400 32008KT P6SM OVC030
     FM221700 32005KT P6SM BKN035=

USA.gov is the U.S. government's official web portal to all federal, state and local government web resources and services.